sensor_id;sensor_type;location;lat;lon;timestamp;pressure;altitude;pressure_sealevel;temperature;humidity
58471;BME280;44258;51.288;12.068;2023-02-28T00:01:24;101920.31;;;1.19;55.58
58471;BME280;44258;51.288;12.068;2023-02-28T00:03:50;101925.25;;;0.80;55.99
58471;BME280;44258;51.288;12.068;2023-02-28T00:06:17;101919.06;;;0.81;56.82
58471;BME280;44258;51.288;12.068;2023-02-28T00:08:47;101921.91;;;1.01;56.24
58471;BME280;44258;51.288;12.068;2023-02-28T00:11:16;101916.72;;;1.14;56.21
58471;BME280;44258;51.288;12.068;2023-02-28T00:13:45;101917.47;;;0.99;55.92
58471;BME280;44258;51.288;12.068;2023-02-28T00:16:13;101912.19;;;1.00;56.15
58471;BME280;44258;51.288;12.068;2023-02-28T00:18:40;101915.03;;;1.26;55.86
58471;BME280;44258;51.288;12.068;2023-02-28T00:21:07;101901.81;;;1.29;55.39
58471;BME280;44258;51.288;12.068;2023-02-28T00:23:34;101908.13;;;1.44;55.30
58471;BME280;44258;51.288;12.068;2023-02-28T00:26:01;101910.78;;;1.48;55.31
58471;BME280;44258;51.288;12.068;2023-02-28T00:28:29;101908.13;;;1.48;55.53
58471;BME280;44258;51.288;12.068;2023-02-28T00:30:56;101906.16;;;1.20;55.60
58471;BME280;44258;51.288;12.068;2023-02-28T00:33:25;101904.41;;;1.22;55.58
58471;BME280;44258;51.288;12.068;2023-02-28T00:36:02;101905.34;;;1.28;55.51
58471;BME280;44258;51.288;12.068;2023-02-28T00:38:29;101912.38;;;1.23;55.55
58471;BME280;44258;51.288;12.068;2023-02-28T00:40:56;101900.84;;;1.15;55.61
58471;BME280;44258;51.288;12.068;2023-02-28T00:43:23;101906.16;;;1.17;55.40
58471;BME280;44258;51.288;12.068;2023-02-28T00:45:51;101899.13;;;1.23;55.53
58471;BME280;44258;51.288;12.068;2023-02-28T00:48:18;101906.84;;;0.96;55.83
58471;BME280;44258;51.288;12.068;2023-02-28T00:50:48;101908.84;;;1.21;55.62
58471;BME280;44258;51.288;12.068;2023-02-28T00:53:14;101900.78;;;1.12;55.84
58471;BME280;44258;51.288;12.068;2023-02-28T00:55:41;101905.28;;;1.19;55.84
58471;BME280;44258;51.288;12.068;2023-02-28T00:58:07;101907.13;;;1.29;55.74
58471;BME280;44258;51.288;12.068;2023-02-28T01:00:34;101902.69;;;1.28;55.42
58471;BME280;44258;51.288;12.068;2023-02-28T01:03:02;101902.72;;;1.30;55.04
58471;BME280;44258;51.288;12.068;2023-02-28T01:05:28;101903.66;;;1.35;55.02
58471;BME280;44258;51.288;12.068;2023-02-28T01:07:55;101902.50;;;0.18;57.68
58471;BME280;44258;51.288;12.068;2023-02-28T01:10:21;101913.03;;;0.14;58.73
58471;BME280;44258;51.288;12.068;2023-02-28T01:12:48;101901.81;;;0.33;58.29
58471;BME280;44258;51.288;12.068;2023-02-28T01:15:15;101900.81;;;0.23;58.72
58471;BME280;44258;51.288;12.068;2023-02-28T01:17:41;101896.06;;;0.76;57.31
58471;BME280;44258;51.288;12.068;2023-02-28T01:20:10;101900.63;;;0.90;56.93
58471;BME280;44258;51.288;12.068;2023-02-28T01:22:39;101897.97;;;0.89;57.06
58471;BME280;44258;51.288;12.068;2023-02-28T01:25:07;101904.25;;;1.03;56.49
58471;BME280;44258;51.288;12.068;2023-02-28T01:27:33;101900.34;;;-0.15;59.62
58471;BME280;44258;51.288;12.068;2023-02-28T01:30:01;101900.84;;;0.25;59.14
58471;BME280;44258;51.288;12.068;2023-02-28T01:32:29;101898.28;;;0.34;58.92
58471;BME280;44258;51.288;12.068;2023-02-28T01:34:56;101897.41;;;0.37;58.90
58471;BME280;44258;51.288;12.068;2023-02-28T01:37:26;101896.94;;;0.75;58.00
58471;BME280;44258;51.288;12.068;2023-02-28T01:39:53;101899.75;;;0.91;57.56
58471;BME280;44258;51.288;12.068;2023-02-28T01:42:20;101896.16;;;0.82;57.81
58471;BME280;44258;51.288;12.068;2023-02-28T01:45:17;101893.50;;;0.82;57.52
58471;BME280;44258;51.288;12.068;2023-02-28T01:47:45;101898.72;;;0.74;57.96
58471;BME280;44258;51.288;12.068;2023-02-28T01:50:19;101890.63;;;0.60;58.54
58471;BME280;44258;51.288;12.068;2023-02-28T01:52:48;101887.03;;;0.55;58.01
58471;BME280;44258;51.288;12.068;2023-02-28T01:55:17;101892.06;;;0.30;58.78
58471;BME280;44258;51.288;12.068;2023-02-28T01:57:47;101883.28;;;0.31;58.73
58471;BME280;44258;51.288;12.068;2023-02-28T02:00:16;101878.91;;;0.37;58.01
58471;BME280;44258;51.288;12.068;2023-02-28T02:02:46;101874.75;;;0.60;57.87
58471;BME280;44258;51.288;12.068;2023-02-28T02:05:16;101872.13;;;0.63;57.73
58471;BME280;44258;51.288;12.068;2023-02-28T02:07:46;101874.06;;;0.80;57.12
58471;BME280;44258;51.288;12.068;2023-02-28T02:10:18;101879.38;;;0.83;57.32
58471;BME280;44258;51.288;12.068;2023-02-28T02:13:00;101875.56;;;0.51;58.07
58471;BME280;44258;51.288;12.068;2023-02-28T02:15:34;101879.22;;;0.67;57.45
58471;BME280;44258;51.288;12.068;2023-02-28T02:18:04;101874.94;;;0.83;57.66
58471;BME280;44258;51.288;12.068;2023-02-28T02:20:59;101870.69;;;0.99;56.96
58471;BME280;44258;51.288;12.068;2023-02-28T02:24:14;101876.97;;;0.22;58.32
58471;BME280;44258;51.288;12.068;2023-02-28T02:26:58;101865.16;;;-0.08;60.13
58471;BME280;44258;51.288;12.068;2023-02-28T02:35:24;101861.09;;;-0.50;61.31
58471;BME280;44258;51.288;12.068;2023-02-28T02:38:00;101863.31;;;-0.15;60.74
58471;BME280;44258;51.288;12.068;2023-02-28T02:40:35;101858.78;;;-0.25;61.04
58471;BME280;44258;51.288;12.068;2023-02-28T02:43:07;101863.34;;;-0.14;61.22
58471;BME280;44258;51.288;12.068;2023-02-28T02:45:39;101858.28;;;0.05;60.76
58471;BME280;44258;51.288;12.068;2023-02-28T02:48:11;101854.59;;;-0.06;61.04
58471;BME280;44258;51.288;12.068;2023-02-28T02:50:44;101862.38;;;-0.22;61.20
58471;BME280;44258;51.288;12.068;2023-02-28T02:53:12;101867.63;;;-0.23;60.66
58471;BME280;44258;51.288;12.068;2023-02-28T02:55:46;101868.97;;;0.13;60.72
58471;BME280;44258;51.288;12.068;2023-02-28T02:58:22;101868.47;;;-0.24;60.91
58471;BME280;44258;51.288;12.068;2023-02-28T03:00:52;101871.13;;;-0.26;60.95
58471;BME280;44258;51.288;12.068;2023-02-28T03:03:21;101867.38;;;0.30;59.56
58471;BME280;44258;51.288;12.068;2023-02-28T03:05:56;101870.22;;;0.48;59.11
58471;BME280;44258;51.288;12.068;2023-02-28T03:08:24;101870.34;;;0.61;58.74
58471;BME280;44258;51.288;12.068;2023-02-28T03:10:52;101866.50;;;0.29;59.80
58471;BME280;44258;51.288;12.068;2023-02-28T03:13:41;101872.91;;;0.55;59.02
58471;BME280;44258;51.288;12.068;2023-02-28T03:16:33;101876.38;;;0.46;58.75
58471;BME280;44258;51.288;12.068;2023-02-28T03:19:11;101874.06;;;0.80;58.06
58471;BME280;44258;51.288;12.068;2023-02-28T03:21:52;101870.72;;;1.05;57.34
58471;BME280;44258;51.288;12.068;2023-02-28T03:24:28;101875.19;;;1.14;56.91
58471;BME280;44258;51.288;12.068;2023-02-28T03:27:01;101877.84;;;1.14;56.71
58471;BME280;44258;51.288;12.068;2023-02-28T03:29:34;101877.81;;;1.08;57.01
58471;BME280;44258;51.288;12.068;2023-02-28T03:32:05;101882.06;;;0.87;57.94
58471;BME280;44258;51.288;12.068;2023-02-28T03:34:38;101880.56;;;0.25;59.84
58471;BME280;44258;51.288;12.068;2023-02-28T03:37:11;101884.19;;;0.34;59.95
58471;BME280;44258;51.288;12.068;2023-02-28T03:39:44;101877.22;;;0.42;59.69
58471;BME280;44258;51.288;12.068;2023-02-28T03:42:15;101874.31;;;0.20;60.41
58471;BME280;44258;51.288;12.068;2023-02-28T03:44:47;101875.78;;;-0.05;60.55
58471;BME280;44258;51.288;12.068;2023-02-28T03:47:21;101880.78;;;-0.87;63.01
58471;BME280;44258;51.288;12.068;2023-02-28T03:49:53;101878.97;;;-0.31;62.06
58471;BME280;44258;51.288;12.068;2023-02-28T03:52:23;101883.13;;;-0.50;62.53
58471;BME280;44258;51.288;12.068;2023-02-28T03:54:54;101874.94;;;-0.66;62.33
58471;BME280;44258;51.288;12.068;2023-02-28T03:57:26;101871.13;;;-0.26;61.65
58471;BME280;44258;51.288;12.068;2023-02-28T03:59:58;101881.69;;;-0.26;61.32
58471;BME280;44258;51.288;12.068;2023-02-28T04:02:25;101884.91;;;0.19;60.55
58471;BME280;44258;51.288;12.068;2023-02-28T04:04:52;101883.91;;;0.09;59.67
58471;BME280;44258;51.288;12.068;2023-02-28T04:07:18;101883.19;;;0.25;60.04
58471;BME280;44258;51.288;12.068;2023-02-28T04:09:46;101880.94;;;-0.14;60.92
58471;BME280;44258;51.288;12.068;2023-02-28T04:12:13;101884.13;;;0.27;59.66
58471;BME280;44258;51.288;12.068;2023-02-28T04:14:39;101891.53;;;0.62;58.45
58471;BME280;44258;51.288;12.068;2023-02-28T04:17:06;101885.00;;;0.28;59.73
58471;BME280;44258;51.288;12.068;2023-02-28T04:19:35;101880.72;;;0.42;59.48
58471;BME280;44258;51.288;12.068;2023-02-28T04:22:01;101884.91;;;0.22;60.02
58471;BME280;44258;51.288;12.068;2023-02-28T04:24:28;101883.38;;;-0.31;60.65
58471;BME280;44258;51.288;12.068;2023-02-28T04:26:57;101890.00;;;0.06;60.99
58471;BME280;44258;51.288;12.068;2023-02-28T04:29:25;101893.19;;;0.53;59.54
58471;BME280;44258;51.288;12.068;2023-02-28T04:31:53;101893.34;;;0.69;58.95
58471;BME280;44258;51.288;12.068;2023-02-28T04:34:20;101892.22;;;0.44;59.10
58471;BME280;44258;51.288;12.068;2023-02-28T04:36:49;101894.63;;;0.24;60.40
58471;BME280;44258;51.288;12.068;2023-02-28T04:39:19;101895.75;;;-0.27;60.78
58471;BME280;44258;51.288;12.068;2023-02-28T04:41:46;101893.59;;;0.10;59.50
58471;BME280;44258;51.288;12.068;2023-02-28T04:44:14;101892.50;;;-0.06;59.82
58471;BME280;44258;51.288;12.068;2023-02-28T04:46:42;101896.81;;;-0.14;59.33
58471;BME280;44258;51.288;12.068;2023-02-28T04:49:09;101891.59;;;-0.08;59.47
58471;BME280;44258;51.288;12.068;2023-02-28T04:51:37;101891.69;;;-0.00;59.53
58471;BME280;44258;51.288;12.068;2023-02-28T04:54:03;101892.56;;;-0.03;60.15
58471;BME280;44258;51.288;12.068;2023-02-28T04:56:30;101899.94;;;-0.44;61.36
58471;BME280;44258;51.288;12.068;2023-02-28T04:58:56;101895.00;;;-0.18;61.08
58471;BME280;44258;51.288;12.068;2023-02-28T05:01:26;101891.22;;;0.35;59.27
58471;BME280;44258;51.288;12.068;2023-02-28T05:03:56;101898.59;;;0.62;58.61
58471;BME280;44258;51.288;12.068;2023-02-28T05:06:23;101901.16;;;0.57;58.43
58471;BME280;44258;51.288;12.068;2023-02-28T05:08:51;101894.91;;;-0.26;61.33
58471;BME280;44258;51.288;12.068;2023-02-28T05:11:20;101909.00;;;-0.85;63.23
58471;BME280;44258;51.288;12.068;2023-02-28T05:13:48;101905.44;;;-0.85;63.62
58471;BME280;44258;51.288;12.068;2023-02-28T05:16:14;101910.28;;;-0.60;62.95
58471;BME280;44258;51.288;12.068;2023-02-28T05:18:43;101911.69;;;-0.22;61.26
58471;BME280;44258;51.288;12.068;2023-02-28T05:21:31;101908.50;;;-0.59;61.79
58471;BME280;44258;51.288;12.068;2023-02-28T05:24:01;101905.28;;;-0.40;61.42
58471;BME280;44258;51.288;12.068;2023-02-28T05:26:29;101914.47;;;-0.10;60.69
58471;BME280;44258;51.288;12.068;2023-02-28T05:28:56;101916.81;;;-0.33;60.74
58471;BME280;44258;51.288;12.068;2023-02-28T05:31:23;101909.78;;;-0.33;60.98
58471;BME280;44258;51.288;12.068;2023-02-28T05:33:53;101913.16;;;-0.99;62.61
58471;BME280;44258;51.288;12.068;2023-02-28T05:36:20;101914.91;;;-1.00;63.08
58471;BME280;44258;51.288;12.068;2023-02-28T05:38:47;101909.84;;;-0.26;60.47
58471;BME280;44258;51.288;12.068;2023-02-28T05:41:14;101918.66;;;-0.27;60.82
58471;BME280;44258;51.288;12.068;2023-02-28T05:43:41;101917.53;;;0.19;59.28
58471;BME280;44258;51.288;12.068;2023-02-28T05:46:09;101924.38;;;0.03;59.44
58471;BME280;44258;51.288;12.068;2023-02-28T05:48:37;101918.72;;;-0.23;60.43
58471;BME280;44258;51.288;12.068;2023-02-28T05:51:06;101915.38;;;-0.11;60.07
58471;BME280;44258;51.288;12.068;2023-02-28T05:53:33;101919.19;;;0.11;58.99
58471;BME280;44258;51.288;12.068;2023-02-28T05:55:59;101920.56;;;-0.17;58.80
58471;BME280;44258;51.288;12.068;2023-02-28T05:58:28;101924.81;;;-0.30;59.64
58471;BME280;44258;51.288;12.068;2023-02-28T06:00:56;101935.06;;;0.11;58.42
58471;BME280;44258;51.288;12.068;2023-02-28T06:03:23;101936.41;;;-0.19;59.59
58471;BME280;44258;51.288;12.068;2023-02-28T06:05:50;101936.41;;;-0.19;59.79
58471;BME280;44258;51.288;12.068;2023-02-28T06:08:18;101946.94;;;-0.23;59.53
58471;BME280;44258;51.288;12.068;2023-02-28T06:10:44;101936.94;;;-0.44;60.63
58471;BME280;44258;51.288;12.068;2023-02-28T06:13:11;101948.78;;;-0.18;59.63
58471;BME280;44258;51.288;12.068;2023-02-28T06:15:38;101947.22;;;-0.03;58.29
58471;BME280;44258;51.288;12.068;2023-02-28T06:18:05;101951.75;;;0.07;58.70
58471;BME280;44258;51.288;12.068;2023-02-28T06:20:34;101949.59;;;-0.20;58.66
58471;BME280;44258;51.288;12.068;2023-02-28T06:23:01;101955.75;;;-0.23;59.21
58471;BME280;44258;51.288;12.068;2023-02-28T06:25:29;101954.34;;;0.04;57.74
58471;BME280;44258;51.288;12.068;2023-02-28T06:27:56;101950.91;;;-0.52;60.17
58471;BME280;44258;51.288;12.068;2023-02-28T06:30:22;101963.53;;;-0.32;59.25
58471;BME280;44258;51.288;12.068;2023-02-28T06:32:52;101968.13;;;-0.19;58.98
58471;BME280;44258;51.288;12.068;2023-02-28T06:35:19;101965.75;;;-0.00;58.33
58471;BME280;44258;51.288;12.068;2023-02-28T06:37:49;101963.38;;;-0.43;59.17
58471;BME280;44258;51.288;12.068;2023-02-28T06:40:16;101973.06;;;-0.43;59.16
58471;BME280;44258;51.288;12.068;2023-02-28T06:42:44;101966.09;;;-0.38;58.81
58471;BME280;44258;51.288;12.068;2023-02-28T06:45:11;101977.81;;;-0.19;58.50
58471;BME280;44258;51.288;12.068;2023-02-28T06:47:39;101980.22;;;-0.35;58.42
58471;BME280;44258;51.288;12.068;2023-02-28T06:50:10;101981.94;;;-0.40;58.42
58471;BME280;44258;51.288;12.068;2023-02-28T06:52:37;101980.09;;;-0.44;59.67
58471;BME280;44258;51.288;12.068;2023-02-28T06:55:06;101987.59;;;-0.12;59.10
58471;BME280;44258;51.288;12.068;2023-02-28T06:57:34;101989.78;;;0.15;58.04
58471;BME280;44258;51.288;12.068;2023-02-28T07:00:07;101988.31;;;0.40;57.09
58471;BME280;44258;51.288;12.068;2023-02-28T07:02:33;101991.41;;;0.05;58.27
58471;BME280;44258;51.288;12.068;2023-02-28T07:05:00;101997.81;;;-0.38;57.92
58471;BME280;44258;51.288;12.068;2023-02-28T07:07:27;102001.78;;;-0.63;59.47
58471;BME280;44258;51.288;12.068;2023-02-28T07:09:53;101996.63;;;-0.56;59.91
58471;BME280;44258;51.288;12.068;2023-02-28T07:12:20;101996.03;;;0.22;57.77
58471;BME280;44258;51.288;12.068;2023-02-28T07:14:54;102000.63;;;0.35;56.74
58471;BME280;44258;51.288;12.068;2023-02-28T07:17:22;101991.78;;;0.35;56.25
58471;BME280;44258;51.288;12.068;2023-02-28T07:19:48;101996.78;;;0.85;54.29
58471;BME280;44258;51.288;12.068;2023-02-28T07:22:15;101997.38;;;0.59;54.35
58471;BME280;44258;51.288;12.068;2023-02-28T07:24:47;101998.34;;;0.67;54.79
58471;BME280;44258;51.288;12.068;2023-02-28T07:27:14;101995.16;;;0.96;54.19
58471;BME280;44258;51.288;12.068;2023-02-28T07:29:48;102000.16;;;0.01;55.82
58471;BME280;44258;51.288;12.068;2023-02-28T07:32:15;102002.63;;;0.56;56.07
58471;BME280;44258;51.288;12.068;2023-02-28T07:34:43;102008.75;;;1.33;54.40
58471;BME280;44258;51.288;12.068;2023-02-28T07:37:09;102006.34;;;1.62;52.88
58471;BME280;44258;51.288;12.068;2023-02-28T07:39:36;102010.69;;;1.51;52.97
58471;BME280;44258;51.288;12.068;2023-02-28T07:42:04;102007.31;;;1.74;52.73
58471;BME280;44258;51.288;12.068;2023-02-28T07:44:31;102009.16;;;1.84;52.43
58471;BME280;44258;51.288;12.068;2023-02-28T07:46:57;102008.81;;;1.42;51.55
58471;BME280;44258;51.288;12.068;2023-02-28T07:49:24;102011.69;;;1.68;51.70
58471;BME280;44258;51.288;12.068;2023-02-28T07:51:52;102012.00;;;2.13;50.96
58471;BME280;44258;51.288;12.068;2023-02-28T07:54:19;102011.88;;;1.95;50.89
58471;BME280;44258;51.288;12.068;2023-02-28T07:56:48;102008.44;;;2.16;49.85
58471;BME280;44258;51.288;12.068;2023-02-28T07:59:15;102004.06;;;2.19;49.77
58471;BME280;44258;51.288;12.068;2023-02-28T08:01:41;102012.88;;;2.12;49.26
58471;BME280;44258;51.288;12.068;2023-02-28T08:04:10;102017.19;;;1.95;49.43
58471;BME280;44258;51.288;12.068;2023-02-28T08:06:37;102006.78;;;2.28;48.33
58471;BME280;44258;51.288;12.068;2023-02-28T08:09:05;102012.09;;;2.31;48.90
58471;BME280;44258;51.288;12.068;2023-02-28T08:11:31;102017.28;;;2.13;48.74
58471;BME280;44258;51.288;12.068;2023-02-28T08:13:58;102012.19;;;1.23;51.53
58471;BME280;44258;51.288;12.068;2023-02-28T08:16:24;102014.69;;;2.19;50.19
58471;BME280;44258;51.288;12.068;2023-02-28T08:18:51;102017.44;;;1.20;49.86
58471;BME280;44258;51.288;12.068;2023-02-28T08:21:19;102019.13;;;1.08;50.71
58471;BME280;44258;51.288;12.068;2023-02-28T08:23:46;102018.69;;;0.03;52.46
58471;BME280;44258;51.288;12.068;2023-02-28T08:26:14;102007.63;;;1.09;51.58
58471;BME280;44258;51.288;12.068;2023-02-28T08:28:40;102009.22;;;0.90;51.44
58471;BME280;44258;51.288;12.068;2023-02-28T08:31:08;102005.81;;;2.14;49.21
58471;BME280;44258;51.288;12.068;2023-02-28T08:33:35;102010.50;;;2.75;47.45
58471;BME280;44258;51.288;12.068;2023-02-28T08:36:04;102011.69;;;1.68;47.75
58471;BME280;44258;51.288;12.068;2023-02-28T08:38:31;102022.38;;;1.78;48.60
58471;BME280;44258;51.288;12.068;2023-02-28T08:41:02;102011.63;;;1.59;48.34
58471;BME280;44258;51.288;12.068;2023-02-28T08:43:32;102020.09;;;1.17;47.91
58471;BME280;44258;51.288;12.068;2023-02-28T08:45:59;102014.03;;;1.35;47.57
58471;BME280;44258;51.288;12.068;2023-02-28T08:48:28;102021.81;;;2.29;45.40
58471;BME280;44258;51.288;12.068;2023-02-28T08:50:56;102012.16;;;2.45;44.62
58471;BME280;44258;51.288;12.068;2023-02-28T08:53:23;102014.94;;;2.87;44.13
58471;BME280;44258;51.288;12.068;2023-02-28T08:55:56;102026.41;;;2.66;42.65
58471;BME280;44258;51.288;12.068;2023-02-28T08:58:25;102023.53;;;2.21;43.14
58471;BME280;44258;51.288;12.068;2023-02-28T09:00:54;102017.22;;;2.01;43.83
58471;BME280;44258;51.288;12.068;2023-02-28T09:03:22;102015.72;;;2.52;43.07
58471;BME280;44258;51.288;12.068;2023-02-28T09:05:53;102017.59;;;2.76;41.86
58471;BME280;44258;51.288;12.068;2023-02-28T09:08:20;102020.09;;;2.44;40.88
58471;BME280;44258;51.288;12.068;2023-02-28T09:10:46;102023.16;;;1.69;42.78
58471;BME280;44258;51.288;12.068;2023-02-28T09:13:14;102023.44;;;2.07;43.58
58471;BME280;44258;51.288;12.068;2023-02-28T09:15:40;102018.47;;;1.36;43.05
58471;BME280;44258;51.288;12.068;2023-02-28T09:18:08;102017.50;;;2.51;43.05
58471;BME280;44258;51.288;12.068;2023-02-28T09:20:37;102017.66;;;3.07;40.92
58471;BME280;44258;51.288;12.068;2023-02-28T09:23:04;102018.56;;;3.12;39.53
58471;BME280;44258;51.288;12.068;2023-02-28T09:25:31;102019.38;;;2.91;38.93
58471;BME280;44258;51.288;12.068;2023-02-28T09:28:00;102021.09;;;2.66;38.88
58471;BME280;44258;51.288;12.068;2023-02-28T09:44:05;102022.88;;;2.75;40.87
58471;BME280;44258;51.288;12.068;2023-02-28T09:46:37;102025.56;;;2.82;40.09
58471;BME280;44258;51.288;12.068;2023-02-28T09:49:08;102028.19;;;2.70;39.62
58471;BME280;44258;51.288;12.068;2023-02-28T09:51:45;102028.94;;;2.40;40.11
58471;BME280;44258;51.288;12.068;2023-02-28T09:54:16;102028.94;;;2.37;41.48
58471;BME280;44258;51.288;12.068;2023-02-28T09:56:45;102029.59;;;1.99;41.84
58471;BME280;44258;51.288;12.068;2023-02-28T09:59:29;102031.19;;;1.77;42.39
58471;BME280;44258;51.288;12.068;2023-02-28T10:02:04;102026.66;;;1.62;41.90
58471;BME280;44258;51.288;12.068;2023-02-28T10:04:42;102033.56;;;1.41;42.93
58471;BME280;44258;51.288;12.068;2023-02-28T10:07:22;102033.00;;;1.81;42.83
58471;BME280;44258;51.288;12.068;2023-02-28T10:09:54;102026.69;;;1.65;42.90
58471;BME280;44258;51.288;12.068;2023-02-28T10:12:23;102032.06;;;1.74;42.60
58471;BME280;44258;51.288;12.068;2023-02-28T10:14:53;102024.13;;;1.76;43.45
58471;BME280;44258;51.288;12.068;2023-02-28T10:17:23;102028.63;;;1.87;42.57
58471;BME280;44258;51.288;12.068;2023-02-28T10:19:58;102028.53;;;1.74;42.86
58471;BME280;44258;51.288;12.068;2023-02-28T10:22:29;102024.16;;;1.83;42.95
58471;BME280;44258;51.288;12.068;2023-02-28T10:25:00;102032.91;;;1.68;43.42
58471;BME280;44258;51.288;12.068;2023-02-28T10:27:30;102034.81;;;1.89;42.50
58471;BME280;44258;51.288;12.068;2023-02-28T10:30:02;102028.63;;;1.89;42.33
58471;BME280;44258;51.288;12.068;2023-02-28T10:32:31;102025.13;;;1.98;42.38
58471;BME280;44258;51.288;12.068;2023-02-28T10:35:00;102019.13;;;2.28;42.64
58471;BME280;44258;51.288;12.068;2023-02-28T10:37:30;102021.69;;;2.09;42.08
58471;BME280;44258;51.288;12.068;2023-02-28T10:39:57;102022.31;;;1.70;43.23
58471;BME280;44258;51.288;12.068;2023-02-28T10:42:26;102024.31;;;2.05;42.96
58471;BME280;44258;51.288;12.068;2023-02-28T10:45:10;102024.53;;;1.21;43.76
58471;BME280;44258;51.288;12.068;2023-02-28T10:47:48;102019.34;;;1.35;43.30
58471;BME280;44258;51.288;12.068;2023-02-28T10:50:31;102021.59;;;1.94;43.42
58471;BME280;44258;51.288;12.068;2023-02-28T10:53:10;102009.41;;;2.27;41.53
58471;BME280;44258;51.288;12.068;2023-02-28T10:55:41;102017.47;;;2.50;42.00
58471;BME280;44258;51.288;12.068;2023-02-28T10:58:20;102001.47;;;2.33;41.00
58471;BME280;44258;51.288;12.068;2023-02-28T11:00:49;102002.44;;;2.52;41.56
58471;BME280;44258;51.288;12.068;2023-02-28T11:03:30;102004.22;;;2.47;41.00
58471;BME280;44258;51.288;12.068;2023-02-28T11:05:57;102000.72;;;2.63;42.00
58471;BME280;44258;51.288;12.068;2023-02-28T11:08:24;101987.50;;;2.77;41.47
58471;BME280;44258;51.288;12.068;2023-02-28T11:10:54;101987.53;;;2.89;40.88
58471;BME280;44258;51.288;12.068;2023-02-28T11:13:26;101990.16;;;2.91;40.98
58471;BME280;44258;51.288;12.068;2023-02-28T11:15:56;101986.63;;;2.89;40.64
58471;BME280;44258;51.288;12.068;2023-02-28T11:18:27;101975.09;;;2.82;40.49
58471;BME280;44258;51.288;12.068;2023-02-28T11:20:58;101973.25;;;2.60;41.89
58471;BME280;44258;51.288;12.068;2023-02-28T11:23:30;101983.34;;;1.60;43.17
58471;BME280;44258;51.288;12.068;2023-02-28T11:25:59;101972.28;;;2.33;42.38
58471;BME280;44258;51.288;12.068;2023-02-28T11:28:29;101979.44;;;2.51;40.82
58471;BME280;44258;51.288;12.068;2023-02-28T11:31:04;101975.91;;;2.57;40.74
58471;BME280;44258;51.288;12.068;2023-02-28T11:33:31;101979.34;;;2.29;42.16
58471;BME280;44258;51.288;12.068;2023-02-28T11:36:02;101975.81;;;2.30;42.12
58471;BME280;44258;51.288;12.068;2023-02-28T11:38:34;101971.44;;;2.39;41.79
58471;BME280;44258;51.288;12.068;2023-02-28T11:41:22;101970.56;;;2.52;41.28
58471;BME280;44258;51.288;12.068;2023-02-28T11:44:01;101975.00;;;2.55;40.79
58471;BME280;44258;51.288;12.068;2023-02-28T11:46:38;101975.03;;;2.61;41.03
58471;BME280;44258;51.288;12.068;2023-02-28T11:49:23;101968.84;;;2.63;41.14
58471;BME280;44258;51.288;12.068;2023-02-28T11:51:57;101967.16;;;3.02;41.80
58471;BME280;44258;51.288;12.068;2023-02-28T11:54:41;101976.00;;;2.97;41.59
58471;BME280;44258;51.288;12.068;2023-02-28T11:57:26;101968.81;;;2.56;40.55
58471;BME280;44258;51.288;12.068;2023-02-28T12:00:03;101962.66;;;2.61;41.44
58471;BME280;44258;51.288;12.068;2023-02-28T12:02:44;101960.94;;;2.83;42.15
58471;BME280;44258;51.288;12.068;2023-02-28T12:05:24;101962.72;;;2.81;41.49
58471;BME280;44258;51.288;12.068;2023-02-28T12:08:01;101959.19;;;2.98;42.18
58471;BME280;44258;51.288;12.068;2023-02-28T12:10:31;101962.75;;;3.06;40.88
58471;BME280;44258;51.288;12.068;2023-02-28T12:13:11;101953.00;;;3.31;41.36
58471;BME280;44258;51.288;12.068;2023-02-28T12:16:25;101958.31;;;3.06;41.57
58471;BME280;44258;51.288;12.068;2023-02-28T12:19:05;101961.66;;;2.28;42.37
58471;BME280;44258;51.288;12.068;2023-02-28T12:21:48;101948.56;;;2.91;42.35
58471;BME280;44258;51.288;12.068;2023-02-28T12:24:30;101955.53;;;2.52;42.04
58471;BME280;44258;51.288;12.068;2023-02-28T12:27:03;101942.22;;;2.39;42.50
58471;BME280;44258;51.288;12.068;2023-02-28T12:29:36;101947.53;;;2.40;42.27
58471;BME280;44258;51.288;12.068;2023-02-28T12:32:16;101942.22;;;2.32;43.43
58471;BME280;44258;51.288;12.068;2023-02-28T12:34:50;101944.00;;;2.50;43.21
58471;BME280;44258;51.288;12.068;2023-02-28T12:37:22;101937.75;;;2.22;43.47
58471;BME280;44258;51.288;12.068;2023-02-28T12:39:55;101934.13;;;2.11;45.11
58471;BME280;44258;51.288;12.068;2023-02-28T12:42:28;101933.44;;;2.69;43.20
58471;BME280;44258;51.288;12.068;2023-02-28T12:44:58;101936.16;;;2.93;43.30
58471;BME280;44258;51.288;12.068;2023-02-28T12:47:25;101922.81;;;2.61;43.12
58471;BME280;44258;51.288;12.068;2023-02-28T12:49:58;101929.09;;;3.06;41.75
58471;BME280;44258;51.288;12.068;2023-02-28T12:52:31;101914.72;;;2.23;43.26
58471;BME280;44258;51.288;12.068;2023-02-28T12:55:06;101916.66;;;2.82;42.30
58471;BME280;44258;51.288;12.068;2023-02-28T12:57:38;101910.47;;;3.12;42.07
58471;BME280;44258;51.288;12.068;2023-02-28T13:00:12;101917.41;;;2.33;43.08
58471;BME280;44258;51.288;12.068;2023-02-28T13:02:55;101918.00;;;1.68;44.23
58471;BME280;44258;51.288;12.068;2023-02-28T13:05:44;101904.19;;;2.47;43.17
58471;BME280;44258;51.288;12.068;2023-02-28T13:08:38;101909.53;;;2.55;43.03
58471;BME280;44258;51.288;12.068;2023-02-28T13:11:24;101911.94;;;1.90;44.58
58471;BME280;44258;51.288;12.068;2023-02-28T13:13:57;101902.38;;;2.31;44.43
58471;BME280;44258;51.288;12.068;2023-02-28T13:16:25;101904.25;;;3.01;42.37
58471;BME280;44258;51.288;12.068;2023-02-28T13:18:51;101906.84;;;2.46;42.80
58471;BME280;44258;51.288;12.068;2023-02-28T13:21:24;101903.91;;;1.78;44.31
58471;BME280;44258;51.288;12.068;2023-02-28T13:24:02;101895.31;;;2.39;43.41
58471;BME280;44258;51.288;12.068;2023-02-28T13:29:34;101902.50;;;3.22;42.56